sensor_id;sensor_type;location;lat;lon;timestamp;pressure;altitude;pressure_sealevel;temperature;humidity
46944;BME280;32678;43.852;25.952;2022-08-19T00:04:18;100684.06;;;30.57;45.51
46944;BME280;32678;43.852;25.952;2022-08-19T00:09:18;100691.09;;;30.35;47.40
46944;BME280;32678;43.852;25.952;2022-08-19T00:14:15;100690.66;;;30.54;48.11
46944;BME280;32678;43.852;25.952;2022-08-19T00:19:13;100691.50;;;30.78;49.02
46944;BME280;32678;43.852;25.952;2022-08-19T00:24:11;100694.22;;;30.78;49.79
46944;BME280;32678;43.852;25.952;2022-08-19T00:29:09;100694.53;;;30.97;50.02
46944;BME280;32678;43.852;25.952;2022-08-19T00:34:07;100684.88;;;31.03;50.17
46944;BME280;32678;43.852;25.952;2022-08-19T00:39:04;100688.31;;;30.89;50.80
46944;BME280;32678;43.852;25.952;2022-08-19T00:44:03;100674.88;;;30.81;51.25
46944;BME280;32678;43.852;25.952;2022-08-19T00:49:00;100678.91;;;30.85;51.36
46944;BME280;32678;43.852;25.952;2022-08-19T00:53:58;100692.97;;;30.80;52.06
46944;BME280;32678;43.852;25.952;2022-08-19T00:58:59;100683.19;;;30.79;52.85
46944;BME280;32678;43.852;25.952;2022-08-19T01:03:57;100668.19;;;30.91;52.34
46944;BME280;32678;43.852;25.952;2022-08-19T01:08:54;100659.09;;;30.84;51.06
46944;BME280;32678;43.852;25.952;2022-08-19T01:13:52;100663.56;;;30.63;49.55
46944;BME280;32678;43.852;25.952;2022-08-19T01:18:50;100672.19;;;30.35;48.05
46944;BME280;32678;43.852;25.952;2022-08-19T01:23:47;100677.19;;;30.24;47.33
46944;BME280;32678;43.852;25.952;2022-08-19T01:28:45;100680.97;;;30.15;48.76
46944;BME280;32678;43.852;25.952;2022-08-19T01:33:42;100677.25;;;30.38;49.36
46944;BME280;32678;43.852;25.952;2022-08-19T01:38:39;100678.47;;;30.59;50.08
46944;BME280;32678;43.852;25.952;2022-08-19T01:43:40;100687.66;;;30.72;49.72
46944;BME280;32678;43.852;25.952;2022-08-19T01:48:57;100683.75;;;30.52;50.14
46944;BME280;32678;43.852;25.952;2022-08-19T01:53:54;100694.59;;;30.52;50.24
46944;BME280;32678;43.852;25.952;2022-08-19T01:58:53;100700.66;;;30.54;51.83
46944;BME280;32678;43.852;25.952;2022-08-19T02:03:50;100708.75;;;29.61;57.10
46944;BME280;32678;43.852;25.952;2022-08-19T02:08:52;100704.25;;;29.13;58.24
46944;BME280;32678;43.852;25.952;2022-08-19T02:13:53;100710.44;;;29.54;57.15
46944;BME280;32678;43.852;25.952;2022-08-19T02:18:50;100702.03;;;29.88;56.18
46944;BME280;32678;43.852;25.952;2022-08-19T02:23:47;100706.47;;;29.73;56.09
46944;BME280;32678;43.852;25.952;2022-08-19T02:28:44;100718.94;;;29.90;55.55
46944;BME280;32678;43.852;25.952;2022-08-19T02:33:42;100720.63;;;29.91;55.00
46944;BME280;32678;43.852;25.952;2022-08-19T02:38:39;100719.56;;;29.53;55.50
46944;BME280;32678;43.852;25.952;2022-08-19T02:43:36;100727.91;;;29.91;54.51
46944;BME280;32678;43.852;25.952;2022-08-19T02:48:34;100725.25;;;30.13;53.79
46944;BME280;32678;43.852;25.952;2022-08-19T02:53:31;100723.31;;;30.22;53.50
46944;BME280;32678;43.852;25.952;2022-08-19T02:58:28;100725.63;;;30.33;53.29
46944;BME280;32678;43.852;25.952;2022-08-19T03:03:25;100732.66;;;30.20;53.89
46944;BME280;32678;43.852;25.952;2022-08-19T03:08:22;100731.19;;;30.09;54.30
46944;BME280;32678;43.852;25.952;2022-08-19T03:13:20;100732.81;;;30.18;53.75
46944;BME280;32678;43.852;25.952;2022-08-19T03:18:17;100725.66;;;30.25;52.14
46944;BME280;32678;43.852;25.952;2022-08-19T03:23:15;100731.50;;;30.14;51.99
46944;BME280;32678;43.852;25.952;2022-08-19T03:28:12;100739.19;;;29.86;53.91
46944;BME280;32678;43.852;25.952;2022-08-19T03:33:10;100740.00;;;30.03;54.29
46944;BME280;32678;43.852;25.952;2022-08-19T03:38:13;100744.50;;;30.10;54.41
46944;BME280;32678;43.852;25.952;2022-08-19T03:43:10;100747.22;;;30.10;54.45
46944;BME280;32678;43.852;25.952;2022-08-19T03:48:07;100753.16;;;29.59;54.61
46944;BME280;32678;43.852;25.952;2022-08-19T03:53:05;100764.31;;;28.67;55.69
46944;BME280;32678;43.852;25.952;2022-08-19T03:58:02;100763.22;;;27.85;59.29
46944;BME280;32678;43.852;25.952;2022-08-19T04:02:58;100761.91;;;27.64;60.43
46944;BME280;32678;43.852;25.952;2022-08-19T04:07:56;100762.06;;;27.62;60.26
46944;BME280;32678;43.852;25.952;2022-08-19T04:12:55;100750.63;;;27.42;59.87
46944;BME280;32678;43.852;25.952;2022-08-19T04:17:52;100768.13;;;27.90;58.08
46944;BME280;32678;43.852;25.952;2022-08-19T04:22:49;100776.16;;;27.82;56.95
46944;BME280;32678;43.852;25.952;2022-08-19T04:27:45;100786.50;;;27.94;56.26
46944;BME280;32678;43.852;25.952;2022-08-19T04:32:43;100785.66;;;28.36;55.66
46944;BME280;32678;43.852;25.952;2022-08-19T04:37:40;100789.97;;;28.79;54.67
46944;BME280;32678;43.852;25.952;2022-08-19T04:42:36;100788.16;;;29.12;53.04
46944;BME280;32678;43.852;25.952;2022-08-19T04:47:36;100773.81;;;29.36;52.56
46944;BME280;32678;43.852;25.952;2022-08-19T04:52:53;100776.66;;;29.42;52.51
46944;BME280;32678;43.852;25.952;2022-08-19T04:57:51;100779.66;;;29.63;52.16
46944;BME280;32678;43.852;25.952;2022-08-19T05:02:48;100756.84;;;29.66;51.78
46944;BME280;32678;43.852;25.952;2022-08-19T05:07:45;100771.91;;;29.52;51.98
46944;BME280;32678;43.852;25.952;2022-08-19T05:12:42;100775.97;;;29.56;52.81
46944;BME280;32678;43.852;25.952;2022-08-19T05:17:39;100781.97;;;29.75;53.42
46944;BME280;32678;43.852;25.952;2022-08-19T05:22:56;100783.31;;;29.95;53.73
46944;BME280;32678;43.852;25.952;2022-08-19T05:27:53;100778.91;;;29.94;54.29
46944;BME280;32678;43.852;25.952;2022-08-19T05:32:53;100781.09;;;29.82;54.25
46944;BME280;32678;43.852;25.952;2022-08-19T05:37:51;100780.50;;;29.64;54.62
46944;BME280;32678;43.852;25.952;2022-08-19T05:42:58;100787.31;;;29.11;58.08
46944;BME280;32678;43.852;25.952;2022-08-19T05:47:54;100791.75;;;28.54;60.34
46944;BME280;32678;43.852;25.952;2022-08-19T05:52:53;100801.88;;;28.10;62.40
46944;BME280;32678;43.852;25.952;2022-08-19T05:57:50;100798.28;;;28.01;62.72
46944;BME280;32678;43.852;25.952;2022-08-19T06:02:48;100804.44;;;28.54;61.00
46944;BME280;32678;43.852;25.952;2022-08-19T06:07:45;100801.97;;;29.01;58.32
46944;BME280;32678;43.852;25.952;2022-08-19T06:12:43;100800.13;;;29.17;56.74
46944;BME280;32678;43.852;25.952;2022-08-19T06:17:42;100793.03;;;29.33;57.27
46944;BME280;32678;43.852;25.952;2022-08-19T06:22:41;100800.47;;;29.31;56.95
46944;BME280;32678;43.852;25.952;2022-08-19T06:27:41;100777.97;;;29.54;55.43
46944;BME280;32678;43.852;25.952;2022-08-19T06:32:58;100779.97;;;29.68;55.29
46944;BME280;32678;43.852;25.952;2022-08-19T06:37:56;100785.69;;;29.74;54.48
46944;BME280;32678;43.852;25.952;2022-08-19T06:42:53;100777.22;;;29.85;54.15
46944;BME280;32678;43.852;25.952;2022-08-19T06:47:52;100777.72;;;29.88;53.41
46944;BME280;32678;43.852;25.952;2022-08-19T06:52:50;100777.53;;;29.98;53.02
46944;BME280;32678;43.852;25.952;2022-08-19T06:57:49;100779.38;;;29.97;52.41
46944;BME280;32678;43.852;25.952;2022-08-19T07:02:47;100781.59;;;29.94;51.34
46944;BME280;32678;43.852;25.952;2022-08-19T07:07:53;100777.91;;;29.95;50.79
46944;BME280;32678;43.852;25.952;2022-08-19T07:12:54;100790.72;;;29.93;51.51
46944;BME280;32678;43.852;25.952;2022-08-19T07:17:51;100779.31;;;30.13;50.86
46944;BME280;32678;43.852;25.952;2022-08-19T07:22:50;100782.34;;;30.19;50.63
46944;BME280;32678;43.852;25.952;2022-08-19T07:27:49;100778.53;;;29.97;48.08
46944;BME280;32678;43.852;25.952;2022-08-19T07:32:50;100781.47;;;29.79;48.48
46944;BME280;32678;43.852;25.952;2022-08-19T07:37:48;100784.16;;;29.95;46.94
46944;BME280;32678;43.852;25.952;2022-08-19T07:42:45;100786.97;;;30.10;46.91
46944;BME280;32678;43.852;25.952;2022-08-19T07:47:42;100793.94;;;29.88;46.23
46944;BME280;32678;43.852;25.952;2022-08-19T07:52:46;100790.38;;;29.88;46.66
46944;BME280;32678;43.852;25.952;2022-08-19T07:57:45;100792.81;;;29.58;47.09
46944;BME280;32678;43.852;25.952;2022-08-19T08:02:42;100792.13;;;29.73;47.59
46944;BME280;32678;43.852;25.952;2022-08-19T08:07:39;100789.97;;;30.15;47.25
46944;BME280;32678;43.852;25.952;2022-08-19T08:12:54;100785.13;;;30.33;45.54
46944;BME280;32678;43.852;25.952;2022-08-19T08:18:06;100778.56;;;30.28;46.36
46944;BME280;32678;43.852;25.952;2022-08-19T08:23:04;100766.88;;;30.04;46.32
46944;BME280;32678;43.852;25.952;2022-08-19T08:28:21;100766.47;;;30.46;46.64
46944;BME280;32678;43.852;25.952;2022-08-19T08:33:19;100771.53;;;30.95;45.92
46944;BME280;32678;43.852;25.952;2022-08-19T08:38:30;100774.53;;;31.23;45.27
46944;BME280;32678;43.852;25.952;2022-08-19T08:43:37;100769.25;;;31.44;44.88
46944;BME280;32678;43.852;25.952;2022-08-19T08:48:36;100763.22;;;31.71;44.09
46944;BME280;32678;43.852;25.952;2022-08-19T08:53:34;100765.72;;;31.88;43.90
46944;BME280;32678;43.852;25.952;2022-08-19T08:58:45;100756.56;;;32.03;43.36
46944;BME280;32678;43.852;25.952;2022-08-19T09:03:50;100764.78;;;32.10;43.08
46944;BME280;32678;43.852;25.952;2022-08-19T09:08:52;100756.56;;;32.18;42.03
46944;BME280;32678;43.852;25.952;2022-08-19T09:13:56;100756.81;;;32.08;41.75
46944;BME280;32678;43.852;25.952;2022-08-19T09:18:57;100757.84;;;32.22;42.31
46944;BME280;32678;43.852;25.952;2022-08-19T09:23:58;100762.44;;;32.21;40.90
46944;BME280;32678;43.852;25.952;2022-08-19T09:28:56;100759.44;;;32.16;40.84
46944;BME280;32678;43.852;25.952;2022-08-19T09:33:54;100747.97;;;32.36;41.41
46944;BME280;32678;43.852;25.952;2022-08-19T09:38:53;100754.72;;;32.40;40.57
46944;BME280;32678;43.852;25.952;2022-08-19T09:43:51;100746.84;;;32.45;39.71
46944;BME280;32678;43.852;25.952;2022-08-19T09:48:49;100745.94;;;32.38;39.59
46944;BME280;32678;43.852;25.952;2022-08-19T09:53:49;100739.78;;;32.50;39.53
46944;BME280;32678;43.852;25.952;2022-08-19T09:58:48;100735.38;;;32.64;39.69
46944;BME280;32678;43.852;25.952;2022-08-19T10:03:49;100730.41;;;32.67;39.76
46944;BME280;32678;43.852;25.952;2022-08-19T10:08:51;100736.00;;;32.45;39.66
46944;BME280;32678;43.852;25.952;2022-08-19T10:13:51;100730.41;;;32.67;38.85
46944;BME280;32678;43.852;25.952;2022-08-19T10:18:48;100720.50;;;32.81;39.03
46944;BME280;32678;43.852;25.952;2022-08-19T10:23:56;100718.34;;;32.98;38.80
46944;BME280;32678;43.852;25.952;2022-08-19T10:28:56;100712.81;;;33.13;38.87
46944;BME280;32678;43.852;25.952;2022-08-19T10:34:08;100710.47;;;33.09;38.50
46944;BME280;32678;43.852;25.952;2022-08-19T10:44:40;100714.94;;;32.68;37.57
46944;BME280;32678;43.852;25.952;2022-08-19T10:49:39;100710.16;;;32.70;37.70
46944;BME280;32678;43.852;25.952;2022-08-19T10:54:51;100711.25;;;32.76;37.85
46944;BME280;32678;43.852;25.952;2022-08-19T11:00:11;100702.72;;;32.79;37.32
46944;BME280;32678;43.852;25.952;2022-08-19T11:05:10;100708.53;;;32.76;37.56
46944;BME280;32678;43.852;25.952;2022-08-19T11:10:09;100682.56;;;32.94;37.77
46944;BME280;32678;43.852;25.952;2022-08-19T11:15:19;100681.94;;;33.20;37.18
46944;BME280;32678;43.852;25.952;2022-08-19T11:20:16;100680.84;;;33.42;36.55
46944;BME280;32678;43.852;25.952;2022-08-19T11:25:12;100670.34;;;33.33;36.17
46944;BME280;32678;43.852;25.952;2022-08-19T11:30:11;100673.38;;;33.17;35.88
46944;BME280;32678;43.852;25.952;2022-08-19T11:35:09;100663.06;;;33.12;35.53
46944;BME280;32678;43.852;25.952;2022-08-19T11:40:10;100659.63;;;33.25;35.97
46944;BME280;32678;43.852;25.952;2022-08-19T11:45:09;100662.50;;;33.51;35.87
46944;BME280;32678;43.852;25.952;2022-08-19T11:50:07;100654.88;;;33.74;35.79
46944;BME280;32678;43.852;25.952;2022-08-19T11:55:07;100653.72;;;34.10;35.34
46944;BME280;32678;43.852;25.952;2022-08-19T12:00:06;100649.59;;;34.27;35.34
46944;BME280;32678;43.852;25.952;2022-08-19T12:05:04;100641.25;;;34.35;35.09
46944;BME280;32678;43.852;25.952;2022-08-19T12:10:08;100641.88;;;34.44;34.92
46944;BME280;32678;43.852;25.952;2022-08-19T12:15:07;100639.75;;;34.19;33.44
46944;BME280;32678;43.852;25.952;2022-08-19T12:20:05;100630.19;;;33.69;34.12
46944;BME280;32678;43.852;25.952;2022-08-19T12:25:02;100626.88;;;33.87;33.84
46944;BME280;32678;43.852;25.952;2022-08-19T12:30:01;100624.81;;;33.89;34.05
46944;BME280;32678;43.852;25.952;2022-08-19T12:34:58;100627.75;;;34.07;33.74
46944;BME280;32678;43.852;25.952;2022-08-19T12:39:57;100623.56;;;33.91;33.47
46944;BME280;32678;43.852;25.952;2022-08-19T12:44:54;100633.63;;;33.50;34.49
46944;BME280;32678;43.852;25.952;2022-08-19T12:49:52;100618.91;;;33.79;34.18
46944;BME280;32678;43.852;25.952;2022-08-19T12:54:51;100620.66;;;34.06;35.26
46944;BME280;32678;43.852;25.952;2022-08-19T12:59:51;100618.44;;;34.29;34.57
46944;BME280;32678;43.852;25.952;2022-08-19T13:04:52;100619.88;;;34.39;33.64
46944;BME280;32678;43.852;25.952;2022-08-19T13:09:53;100616.69;;;34.09;33.02
46944;BME280;32678;43.852;25.952;2022-08-19T13:14:50;100608.53;;;34.15;33.34
46944;BME280;32678;43.852;25.952;2022-08-19T13:19:48;100608.16;;;34.31;33.70
46944;BME280;32678;43.852;25.952;2022-08-19T13:24:46;100599.97;;;34.51;33.77
46944;BME280;32678;43.852;25.952;2022-08-19T13:29:43;100603.38;;;34.73;33.97
46944;BME280;32678;43.852;25.952;2022-08-19T13:34:58;100598.72;;;34.87;33.37
46944;BME280;32678;43.852;25.952;2022-08-19T13:39:56;100591.19;;;34.89;33.01
46944;BME280;32678;43.852;25.952;2022-08-19T13:44:53;100586.38;;;34.58;32.43
46944;BME280;32678;43.852;25.952;2022-08-19T13:49:50;100583.00;;;34.56;32.12
46944;BME280;32678;43.852;25.952;2022-08-19T13:54:47;100570.66;;;34.14;31.48
46944;BME280;32678;43.852;25.952;2022-08-19T13:59:47;100579.69;;;34.34;31.39
46944;BME280;32678;43.852;25.952;2022-08-19T14:04:47;100580.09;;;34.24;31.50
46944;BME280;32678;43.852;25.952;2022-08-19T14:09:44;100573.41;;;34.33;31.30
46944;BME280;32678;43.852;25.952;2022-08-19T14:14:43;100583.44;;;34.26;31.58
46944;BME280;32678;43.852;25.952;2022-08-19T14:19:40;100579.88;;;34.52;31.65
46944;BME280;32678;43.852;25.952;2022-08-19T14:24:43;100581.16;;;34.43;31.69
46944;BME280;32678;43.852;25.952;2022-08-19T14:29:44;100579.47;;;34.22;30.92
46944;BME280;32678;43.852;25.952;2022-08-19T14:34:44;100574.00;;;34.16;31.33
46944;BME280;32678;43.852;25.952;2022-08-19T14:39:42;100573.16;;;33.96;31.73
46944;BME280;32678;43.852;25.952;2022-08-19T14:44:39;100571.72;;;34.26;31.62
46944;BME280;32678;43.852;25.952;2022-08-19T14:49:36;100567.13;;;34.40;31.88
46944;BME280;32678;43.852;25.952;2022-08-19T14:54:43;100552.22;;;34.55;31.93
46944;BME280;32678;43.852;25.952;2022-08-19T14:59:43;100572.13;;;34.82;32.15
46944;BME280;32678;43.852;25.952;2022-08-19T15:04:40;100568.13;;;34.98;31.66
46944;BME280;32678;43.852;25.952;2022-08-19T15:09:37;100560.09;;;35.09;31.62
46944;BME280;32678;43.852;25.952;2022-08-19T15:14:36;100558.00;;;35.11;31.76
46944;BME280;32678;43.852;25.952;2022-08-19T15:19:34;100548.19;;;35.04;31.08
46944;BME280;32678;43.852;25.952;2022-08-19T15:24:32;100545.66;;;35.09;30.89
46944;BME280;32678;43.852;25.952;2022-08-19T15:29:30;100541.72;;;34.98;29.94
46944;BME280;32678;43.852;25.952;2022-08-19T15:34:32;100545.94;;;34.88;30.33
46944;BME280;32678;43.852;25.952;2022-08-19T15:39:29;100525.56;;;34.90;30.14
46944;BME280;32678;43.852;25.952;2022-08-19T15:44:29;100544.88;;;35.46;29.27
46944;BME280;32678;43.852;25.952;2022-08-19T15:49:26;100535.78;;;35.21;29.48
46944;BME280;32678;43.852;25.952;2022-08-19T15:54:24;100522.91;;;34.84;30.35
46944;BME280;32678;43.852;25.952;2022-08-19T15:59:21;100526.88;;;34.61;30.40
46944;BME280;32678;43.852;25.952;2022-08-19T16:04:43;100535.25;;;34.66;30.54
46944;BME280;32678;43.852;25.952;2022-08-19T16:09:58;100537.38;;;34.58;30.73
46944;BME280;32678;43.852;25.952;2022-08-19T16:15:16;100532.31;;;34.61;30.19
46944;BME280;32678;43.852;25.952;2022-08-19T16:20:13;100532.31;;;34.61;30.32
46944;BME280;32678;43.852;25.952;2022-08-19T16:25:13;100527.94;;;34.60;30.74
46944;BME280;32678;43.852;25.952;2022-08-19T16:30:11;100530.25;;;34.63;30.42
46944;BME280;32678;43.852;25.952;2022-08-19T16:35:08;100521.44;;;34.61;30.84
46944;BME280;32678;43.852;25.952;2022-08-19T16:40:07;100519.16;;;34.58;30.50
46944;BME280;32678;43.852;25.952;2022-08-19T16:45:06;100522.91;;;34.57;30.64
46944;BME280;32678;43.852;25.952;2022-08-19T16:50:04;100518.72;;;34.61;30.82
46944;BME280;32678;43.852;25.952;2022-08-19T16:55:03;100526.88;;;34.61;30.43
46944;BME280;32678;43.852;25.952;2022-08-19T17:00:01;100528.56;;;34.62;30.76
46944;BME280;32678;43.852;25.952;2022-08-19T17:05:00;100533.59;;;34.59;30.88
46944;BME280;32678;43.852;25.952;2022-08-19T17:10:00;100525.22;;;34.54;30.80
46944;BME280;32678;43.852;25.952;2022-08-19T17:14:58;100531.28;;;34.62;31.11
46944;BME280;32678;43.852;25.952;2022-08-19T17:19:55;100532.16;;;34.50;30.99
46944;BME280;32678;43.852;25.952;2022-08-19T17:24:56;100531.53;;;34.34;31.49
46944;BME280;32678;43.852;25.952;2022-08-19T17:29:53;100549.13;;;34.45;31.12
46944;BME280;32678;43.852;25.952;2022-08-19T17:34:51;100547.66;;;34.43;31.29
46944;BME280;32678;43.852;25.952;2022-08-19T17:39:49;100557.72;;;34.35;31.71
46944;BME280;32678;43.852;25.952;2022-08-19T17:44:47;100563.16;;;34.35;32.15
46944;BME280;32678;43.852;25.952;2022-08-19T17:49:46;100578.66;;;34.35;31.81
46944;BME280;32678;43.852;25.952;2022-08-19T17:54:43;100580.53;;;34.28;32.44
46944;BME280;32678;43.852;25.952;2022-08-19T17:59:40;100597.44;;;34.17;32.79
46944;BME280;32678;43.852;25.952;2022-08-19T18:04:38;100601.59;;;33.86;33.44
46944;BME280;32678;43.852;25.952;2022-08-19T18:09:36;100612.81;;;33.70;33.63
46944;BME280;32678;43.852;25.952;2022-08-19T18:14:39;100603.72;;;33.50;34.54
46944;BME280;32678;43.852;25.952;2022-08-19T18:19:36;100609.25;;;33.29;34.83
46944;BME280;32678;43.852;25.952;2022-08-19T18:24:39;100615.75;;;33.28;34.80
46944;BME280;32678;43.852;25.952;2022-08-19T18:29:36;100606.13;;;33.25;35.15
46944;BME280;32678;43.852;25.952;2022-08-19T18:34:35;100628.03;;;33.24;34.65
46944;BME280;32678;43.852;25.952;2022-08-19T18:39:32;100618.56;;;33.13;35.19
46944;BME280;32678;43.852;25.952;2022-08-19T18:44:47;100617.91;;;33.11;34.62
46944;BME280;32678;43.852;25.952;2022-08-19T18:50:05;100628.56;;;32.78;35.08
46944;BME280;32678;43.852;25.952;2022-08-19T18:55:09;100638.53;;;32.71;35.19
46944;BME280;32678;43.852;25.952;2022-08-19T19:00:08;100636.63;;;32.44;35.85
46944;BME280;32678;43.852;25.952;2022-08-19T19:05:06;100635.25;;;32.33;36.12
46944;BME280;32678;43.852;25.952;2022-08-19T19:10:04;100645.44;;;32.31;35.81
46944;BME280;32678;43.852;25.952;2022-08-19T19:15:07;100634.56;;;32.24;36.03
46944;BME280;32678;43.852;25.952;2022-08-19T19:20:06;100645.19;;;32.26;35.86
46944;BME280;32678;43.852;25.952;2022-08-19T19:25:06;100648.38;;;32.30;35.85
46944;BME280;32678;43.852;25.952;2022-08-19T19:30:04;100646.66;;;32.07;36.35
46944;BME280;32678;43.852;25.952;2022-08-19T19:35:01;100652.56;;;31.96;36.58
46944;BME280;32678;43.852;25.952;2022-08-19T19:39:58;100656.25;;;31.89;36.68
46944;BME280;32678;43.852;25.952;2022-08-19T19:44:58;100639.09;;;32.03;36.19
46944;BME280;32678;43.852;25.952;2022-08-19T19:49:55;100659.75;;;32.18;35.95
46944;BME280;32678;43.852;25.952;2022-08-19T19:55:13;100663.88;;;32.14;36.10
46944;BME280;32678;43.852;25.952;2022-08-19T20:00:13;100665.94;;;32.12;36.22
46944;BME280;32678;43.852;25.952;2022-08-19T20:05:11;100674.28;;;31.81;36.73
46944;BME280;32678;43.852;25.952;2022-08-19T20:10:10;100670.69;;;31.74;36.77
46944;BME280;32678;43.852;25.952;2022-08-19T20:15:08;100676.38;;;31.65;36.93
46944;BME280;32678;43.852;25.952;2022-08-19T20:20:06;100682.91;;;31.56;37.25
46944;BME280;32678;43.852;25.952;2022-08-19T20:25:03;100685.63;;;31.85;36.63
46944;BME280;32678;43.852;25.952;2022-08-19T20:30:01;100676.59;;;31.99;36.27
46944;BME280;32678;43.852;25.952;2022-08-19T20:35:01;100678.34;;;32.07;36.15
46944;BME280;32678;43.852;25.952;2022-08-19T20:40:01;100681.00;;;32.15;36.02
46944;BME280;32678;43.852;25.952;2022-08-19T20:44:58;100674.25;;;32.11;36.28
46944;BME280;32678;43.852;25.952;2022-08-19T20:49:57;100668.06;;;32.02;36.44
46944;BME280;32678;43.852;25.952;2022-08-19T20:54:54;100673.22;;;31.76;36.84
46944;BME280;32678;43.852;25.952;2022-08-19T20:59:51;100671.72;;;31.59;37.18
46944;BME280;32678;43.852;25.952;2022-08-19T21:04:48;100676.00;;;31.38;37.39
46944;BME280;32678;43.852;25.952;2022-08-19T21:09:44;100672.53;;;31.15;37.98
46944;BME280;32678;43.852;25.952;2022-08-19T21:14:42;100674.84;;;31.04;38.06
46944;BME280;32678;43.852;25.952;2022-08-19T21:19:39;100676.75;;;31.18;37.78
46944;BME280;32678;43.852;25.952;2022-08-19T21:24:36;100670.94;;;31.06;37.86
46944;BME280;32678;43.852;25.952;2022-08-19T21:29:33;100654.53;;;31.08;37.76
46944;BME280;32678;43.852;25.952;2022-08-19T21:34:33;100674.41;;;31.29;37.77
46944;BME280;32678;43.852;25.952;2022-08-19T21:39:29;100669.84;;;31.15;37.86
46944;BME280;32678;43.852;25.952;2022-08-19T21:44:26;100668.16;;;31.14;38.00
46944;BME280;32678;43.852;25.952;2022-08-19T21:49:23;100670.22;;;31.27;37.62
46944;BME280;32678;43.852;25.952;2022-08-19T21:54:20;100671.13;;;31.19;37.86
46944;BME280;32678;43.852;25.952;2022-08-19T21:59:17;100671.59;;;31.23;40.12
46944;BME280;32678;43.852;25.952;2022-08-19T22:04:14;100653.00;;;31.49;40.48
46944;BME280;32678;43.852;25.952;2022-08-19T22:09:10;100661.13;;;31.78;39.23
46944;BME280;32678;43.852;25.952;2022-08-19T22:14:08;100660.25;;;31.93;41.79
46944;BME280;32678;43.852;25.952;2022-08-19T22:19:05;100648.69;;;31.84;42.04
46944;BME280;32678;43.852;25.952;2022-08-19T22:24:05;100655.28;;;31.96;42.40
46944;BME280;32678;43.852;25.952;2022-08-19T22:29:02;100658.66;;;31.98;43.48
46944;BME280;32678;43.852;25.952;2022-08-19T22:34:01;100652.56;;;31.96;43.21
46944;BME280;32678;43.852;25.952;2022-08-19T22:38:58;100656.19;;;32.03;42.88
46944;BME280;32678;43.852;25.952;2022-08-19T22:43:55;100655.06;;;32.12;40.33
46944;BME280;32678;43.852;25.952;2022-08-19T22:48:53;100652.38;;;31.98;39.38
46944;BME280;32678;43.852;25.952;2022-08-19T22:53:57;100646.16;;;31.82;38.86
46944;BME280;32678;43.852;25.952;2022-08-19T22:58:54;100644.47;;;31.81;40.36
46944;BME280;32678;43.852;25.952;2022-08-19T23:03:51;100641.25;;;31.71;43.24
46944;BME280;32678;43.852;25.952;2022-08-19T23:08:48;100635.16;;;31.69;44.22
46944;BME280;32678;43.852;25.952;2022-08-19T23:13:46;100633.25;;;31.85;44.13
46944;BME280;32678;43.852;25.952;2022-08-19T23:18:43;100627.03;;;32.05;44.12
46944;BME280;32678;43.852;25.952;2022-08-19T23:23:40;100619.22;;;31.96;43.91
46944;BME280;32678;43.852;25.952;2022-08-19T23:28:37;100621.34;;;32.00;44.53
46944;BME280;32678;43.852;25.952;2022-08-19T23:33:53;100622.56;;;31.98;44.92
46944;BME280;32678;43.852;25.952;2022-08-19T23:38:50;100618.69;;;31.86;45.75
46944;BME280;32678;43.852;25.952;2022-08-19T23:43:47;100609.66;;;32.00;44.95
46944;BME280;32678;43.852;25.952;2022-08-19T23:48:47;100608.41;;;32.02;44.51
46944;BME280;32678;43.852;25.952;2022-08-19T23:53:44;100600.59;;;31.93;43.26
46944;BME280;32678;43.852;25.952;2022-08-19T23:58:41;100606.72;;;32.01;40.96
